sensor_id;sensor_type;location;lat;lon;timestamp;pressure;altitude;pressure_sealevel;temperature
45976;BMP280;31696;42.668;23.322;2023-11-22T00:00:13;93982.47;;;7.70
45976;BMP280;31696;42.668;23.322;2023-11-22T00:02:13;93992.44;;;7.66
45976;BMP280;31696;42.668;23.322;2023-11-22T00:04:14;94001.19;;;7.86
45976;BMP280;31696;42.668;23.322;2023-11-22T00:06:14;94000.16;;;7.97
45976;BMP280;31696;42.668;23.322;2023-11-22T00:08:14;93992.78;;;7.78
45976;BMP280;31696;42.668;23.322;2023-11-22T00:10:15;93987.97;;;7.74
45976;BMP280;31696;42.668;23.322;2023-11-22T00:12:15;93982.13;;;7.66
45976;BMP280;31696;42.668;23.322;2023-11-22T00:14:17;93979.00;;;7.75
45976;BMP280;31696;42.668;23.322;2023-11-22T00:16:18;93970.59;;;7.67
45976;BMP280;31696;42.668;23.322;2023-11-22T00:18:18;93975.19;;;7.76
45976;BMP280;31696;42.668;23.322;2023-11-22T00:20:19;93987.59;;;7.85
45976;BMP280;31696;42.668;23.322;2023-11-22T00:22:21;93980.84;;;7.90
45976;BMP280;31696;42.668;23.322;2023-11-22T00:24:21;93985.09;;;8.18
45976;BMP280;31696;42.668;23.322;2023-11-22T00:26:22;93975.88;;;7.92
45976;BMP280;31696;42.668;23.322;2023-11-22T00:28:29;93979.34;;;7.79
45976;BMP280;31696;42.668;23.322;2023-11-22T00:30:30;93983.13;;;7.94
45976;BMP280;31696;42.668;23.322;2023-11-22T00:32:30;93969.56;;;8.25
45976;BMP280;31696;42.668;23.322;2023-11-22T00:34:31;93964.00;;;7.89
45976;BMP280;31696;42.668;23.322;2023-11-22T00:36:31;93979.31;;;7.87
45976;BMP280;31696;42.668;23.322;2023-11-22T00:38:31;93993.19;;;8.22
45976;BMP280;31696;42.668;23.322;2023-11-22T00:40:35;93981.38;;;8.04
45976;BMP280;31696;42.668;23.322;2023-11-22T00:42:36;93992.06;;;7.93
45976;BMP280;31696;42.668;23.322;2023-11-22T00:44:37;93996.13;;;8.26
45976;BMP280;31696;42.668;23.322;2023-11-22T00:46:38;93983.44;;;7.98
45976;BMP280;31696;42.668;23.322;2023-11-22T00:48:38;93986.16;;;8.15
45976;BMP280;31696;42.668;23.322;2023-11-22T00:50:38;93974.25;;;8.12
45976;BMP280;31696;42.668;23.322;2023-11-22T00:52:39;93991.03;;;7.96
45976;BMP280;31696;42.668;23.322;2023-11-22T00:54:39;93977.19;;;8.08
45976;BMP280;31696;42.668;23.322;2023-11-22T00:56:39;93963.59;;;8.00
45976;BMP280;31696;42.668;23.322;2023-11-22T00:58:40;93976.19;;;8.04
45976;BMP280;31696;42.668;23.322;2023-11-22T01:00:41;93967.88;;;8.13
45976;BMP280;31696;42.668;23.322;2023-11-22T01:02:41;93974.13;;;8.02
45976;BMP280;31696;42.668;23.322;2023-11-22T01:04:42;93972.38;;;8.05
45976;BMP280;31696;42.668;23.322;2023-11-22T01:06:42;93978.94;;;8.13
45976;BMP280;31696;42.668;23.322;2023-11-22T01:08:43;93974.63;;;8.08
45976;BMP280;31696;42.668;23.322;2023-11-22T01:10:43;93972.72;;;8.09
45976;BMP280;31696;42.668;23.322;2023-11-22T01:12:43;93969.09;;;8.12
45976;BMP280;31696;42.668;23.322;2023-11-22T01:14:44;93965.63;;;8.24
45976;BMP280;31696;42.668;23.322;2023-11-22T01:16:45;93950.09;;;8.24
45976;BMP280;31696;42.668;23.322;2023-11-22T01:18:45;93950.34;;;8.04
45976;BMP280;31696;42.668;23.322;2023-11-22T01:20:46;93946.38;;;8.03
45976;BMP280;31696;42.668;23.322;2023-11-22T01:22:46;93945.25;;;8.21
45976;BMP280;31696;42.668;23.322;2023-11-22T01:24:47;93957.88;;;8.17
45976;BMP280;31696;42.668;23.322;2023-11-22T01:26:47;93967.72;;;8.11
45976;BMP280;31696;42.668;23.322;2023-11-22T01:28:47;93951.69;;;8.12
45976;BMP280;31696;42.668;23.322;2023-11-22T01:30:48;93952.56;;;8.07
45976;BMP280;31696;42.668;23.322;2023-11-22T01:32:49;93957.88;;;8.17
45976;BMP280;31696;42.668;23.322;2023-11-22T01:34:49;93942.91;;;8.48
45976;BMP280;31696;42.668;23.322;2023-11-22T01:36:50;93942.72;;;8.13
45976;BMP280;31696;42.668;23.322;2023-11-22T01:38:50;93942.06;;;7.98
45976;BMP280;31696;42.668;23.322;2023-11-22T01:40:51;93934.09;;;8.11
45976;BMP280;31696;42.668;23.322;2023-11-22T01:42:51;93918.56;;;8.11
45976;BMP280;31696;42.668;23.322;2023-11-22T01:44:51;93918.09;;;8.05
45976;BMP280;31696;42.668;23.322;2023-11-22T01:46:52;93922.38;;;8.10
45976;BMP280;31696;42.668;23.322;2023-11-22T01:48:54;93925.31;;;8.14
45976;BMP280;31696;42.668;23.322;2023-11-22T01:50:54;93920.28;;;8.16
45976;BMP280;31696;42.668;23.322;2023-11-22T01:52:55;93917.44;;;8.04
45976;BMP280;31696;42.668;23.322;2023-11-22T01:54:55;93929.31;;;8.00
45976;BMP280;31696;42.668;23.322;2023-11-22T01:56:56;93927.81;;;8.29
45976;BMP280;31696;42.668;23.322;2023-11-22T01:58:56;93939.97;;;8.11
45976;BMP280;31696;42.668;23.322;2023-11-22T02:00:57;93935.16;;;8.00
45976;BMP280;31696;42.668;23.322;2023-11-22T02:02:58;93932.56;;;8.08
45976;BMP280;31696;42.668;23.322;2023-11-22T02:05:00;93927.91;;;8.14
45976;BMP280;31696;42.668;23.322;2023-11-22T02:07:00;93931.03;;;8.05
45976;BMP280;31696;42.668;23.322;2023-11-22T02:09:02;93921.28;;;8.20
45976;BMP280;31696;42.668;23.322;2023-11-22T02:11:02;93925.13;;;8.12
45976;BMP280;31696;42.668;23.322;2023-11-22T02:13:04;93914.22;;;8.21
45976;BMP280;31696;42.668;23.322;2023-11-22T02:15:10;93915.84;;;8.09
45976;BMP280;31696;42.668;23.322;2023-11-22T02:17:11;93917.03;;;8.08
45976;BMP280;31696;42.668;23.322;2023-11-22T02:19:15;93913.47;;;8.03
45976;BMP280;31696;42.668;23.322;2023-11-22T02:21:17;93903.13;;;8.03
45976;BMP280;31696;42.668;23.322;2023-11-22T02:23:17;93918.44;;;8.01
45976;BMP280;31696;42.668;23.322;2023-11-22T02:25:18;93910.66;;;8.09
45976;BMP280;31696;42.668;23.322;2023-11-22T02:27:19;93913.78;;;8.00
45976;BMP280;31696;42.668;23.322;2023-11-22T02:29:19;93927.16;;;8.21
45976;BMP280;31696;42.668;23.322;2023-11-22T02:31:20;93933.06;;;8.14
45976;BMP280;31696;42.668;23.322;2023-11-22T02:33:20;93937.69;;;8.15
45976;BMP280;31696;42.668;23.322;2023-11-22T02:35:20;93937.44;;;8.36
45976;BMP280;31696;42.668;23.322;2023-11-22T02:37:21;93914.88;;;7.97
45976;BMP280;31696;42.668;23.322;2023-11-22T02:39:24;93927.84;;;8.21
45976;BMP280;31696;42.668;23.322;2023-11-22T02:41:28;93919.78;;;8.17
45976;BMP280;31696;42.668;23.322;2023-11-22T02:43:31;93921.53;;;8.00
45976;BMP280;31696;42.668;23.322;2023-11-22T02:45:31;93910.00;;;8.01
45976;BMP280;31696;42.668;23.322;2023-11-22T02:47:32;93914.53;;;7.93
45976;BMP280;31696;42.668;23.322;2023-11-22T02:49:34;93915.47;;;8.12
45976;BMP280;31696;42.668;23.322;2023-11-22T02:51:34;93914.41;;;8.23
45976;BMP280;31696;42.668;23.322;2023-11-22T02:53:35;93914.47;;;8.08
45976;BMP280;31696;42.668;23.322;2023-11-22T02:55:35;93923.59;;;8.41
45976;BMP280;31696;42.668;23.322;2023-11-22T02:57:36;93916.81;;;8.21
45976;BMP280;31696;42.668;23.322;2023-11-22T02:59:37;93922.63;;;7.97
45976;BMP280;31696;42.668;23.322;2023-11-22T03:01:37;93923.41;;;8.14
45976;BMP280;31696;42.668;23.322;2023-11-22T03:03:37;93916.69;;;8.11
45976;BMP280;31696;42.668;23.322;2023-11-22T03:05:38;93920.88;;;7.99
45976;BMP280;31696;42.668;23.322;2023-11-22T03:07:38;93925.00;;;8.02
45976;BMP280;31696;42.668;23.322;2023-11-22T03:09:39;93928.91;;;8.11
45976;BMP280;31696;42.668;23.322;2023-11-22T03:11:41;93925.13;;;8.12
45976;BMP280;31696;42.668;23.322;2023-11-22T03:13:41;93925.69;;;8.03
45976;BMP280;31696;42.668;23.322;2023-11-22T03:15:44;93926.94;;;7.94
45976;BMP280;31696;42.668;23.322;2023-11-22T03:17:44;93934.06;;;8.18
45976;BMP280;31696;42.668;23.322;2023-11-22T03:19:45;93928.63;;;8.07
45976;BMP280;31696;42.668;23.322;2023-11-22T03:21:46;93931.03;;;8.05
45976;BMP280;31696;42.668;23.322;2023-11-22T03:23:46;93930.25;;;8.27
45976;BMP280;31696;42.668;23.322;2023-11-22T03:25:47;93934.59;;;8.17
45976;BMP280;31696;42.668;23.322;2023-11-22T03:27:48;93945.44;;;8.23
45976;BMP280;31696;42.668;23.322;2023-11-22T03:29:48;93938.06;;;8.12
45976;BMP280;31696;42.668;23.322;2023-11-22T03:31:49;93940.31;;;8.08
45976;BMP280;31696;42.668;23.322;2023-11-22T03:33:50;93929.97;;;8.08
45976;BMP280;31696;42.668;23.322;2023-11-22T03:35:50;93929.00;;;7.96
45976;BMP280;31696;42.668;23.322;2023-11-22T03:37:50;93927.81;;;7.89
45976;BMP280;31696;42.668;23.322;2023-11-22T03:39:51;93918.66;;;7.96
45976;BMP280;31696;42.668;23.322;2023-11-22T03:41:51;93924.53;;;7.88
45976;BMP280;31696;42.668;23.322;2023-11-22T03:43:51;93929.00;;;7.96
45976;BMP280;31696;42.668;23.322;2023-11-22T03:45:53;93927.91;;;8.06
45976;BMP280;31696;42.668;23.322;2023-11-22T03:47:53;93917.44;;;7.97
45976;BMP280;31696;42.668;23.322;2023-11-22T03:49:53;93911.59;;;7.88
45976;BMP280;31696;42.668;23.322;2023-11-22T03:51:54;93919.50;;;7.90
45976;BMP280;31696;42.668;23.322;2023-11-22T03:53:54;93916.19;;;8.13
45976;BMP280;31696;42.668;23.322;2023-11-22T03:55:55;93910.75;;;7.94
45976;BMP280;31696;42.668;23.322;2023-11-22T03:57:55;93920.72;;;7.89
45976;BMP280;31696;42.668;23.322;2023-11-22T03:59:56;93924.81;;;8.00
45976;BMP280;31696;42.668;23.322;2023-11-22T04:01:56;93920.72;;;7.89
45976;BMP280;31696;42.668;23.322;2023-11-22T04:03:57;93923.09;;;8.03
45976;BMP280;31696;42.668;23.322;2023-11-22T04:05:57;93926.72;;;8.00
45976;BMP280;31696;42.668;23.322;2023-11-22T04:07:57;93924.53;;;7.88
45976;BMP280;31696;42.668;23.322;2023-11-22T04:09:58;93937.25;;;8.02
45976;BMP280;31696;42.668;23.322;2023-11-22T04:11:59;93930.69;;;8.01
45976;BMP280;31696;42.668;23.322;2023-11-22T04:14:00;93934.66;;;8.02
45976;BMP280;31696;42.668;23.322;2023-11-22T04:16:00;93938.78;;;7.97
45976;BMP280;31696;42.668;23.322;2023-11-22T04:18:00;93955.34;;;8.02
45976;BMP280;31696;42.668;23.322;2023-11-22T04:20:01;93951.00;;;8.12
45976;BMP280;31696;42.668;23.322;2023-11-22T04:22:02;93957.22;;;8.01
45976;BMP280;31696;42.668;23.322;2023-11-22T04:24:02;93969.66;;;8.03
45976;BMP280;31696;42.668;23.322;2023-11-22T04:26:03;93966.56;;;7.97
45976;BMP280;31696;42.668;23.322;2023-11-22T04:28:03;93961.88;;;8.03
45976;BMP280;31696;42.668;23.322;2023-11-22T04:30:04;93970.13;;;8.09
45976;BMP280;31696;42.668;23.322;2023-11-22T04:32:05;93960.25;;;8.30
45976;BMP280;31696;42.668;23.322;2023-11-22T04:34:05;93975.16;;;8.07
45976;BMP280;31696;42.668;23.322;2023-11-22T04:36:05;93975.16;;;8.07
45976;BMP280;31696;42.668;23.322;2023-11-22T04:38:06;93977.22;;;8.01
45976;BMP280;31696;42.668;23.322;2023-11-22T04:40:07;93977.88;;;8.16
45976;BMP280;31696;42.668;23.322;2023-11-22T04:42:08;93976.13;;;8.19
45976;BMP280;31696;42.668;23.322;2023-11-22T04:44:08;93968.22;;;8.17
45976;BMP280;31696;42.668;23.322;2023-11-22T04:46:08;93970.44;;;8.28
45976;BMP280;31696;42.668;23.322;2023-11-22T04:48:09;93985.78;;;8.26
45976;BMP280;31696;42.668;23.322;2023-11-22T04:50:09;93984.34;;;8.40
45976;BMP280;31696;42.668;23.322;2023-11-22T04:52:10;93984.06;;;8.21
45976;BMP280;31696;42.668;23.322;2023-11-22T04:54:10;94001.63;;;8.30
45976;BMP280;31696;42.668;23.322;2023-11-22T04:56:11;94007.16;;;8.66
45976;BMP280;31696;42.668;23.322;2023-11-22T04:58:11;94008.53;;;8.27
45976;BMP280;31696;42.668;23.322;2023-11-22T05:00:12;94013.72;;;8.20
45976;BMP280;31696;42.668;23.322;2023-11-22T05:02:13;94023.22;;;8.25
45976;BMP280;31696;42.668;23.322;2023-11-22T05:04:13;94027.16;;;8.26
45976;BMP280;31696;42.668;23.322;2023-11-22T05:06:14;94026.28;;;8.38
45976;BMP280;31696;42.668;23.322;2023-11-22T05:08:14;94030.06;;;8.37
45976;BMP280;31696;42.668;23.322;2023-11-22T05:10:15;94027.84;;;8.19
45976;BMP280;31696;42.668;23.322;2023-11-22T05:12:17;94034.75;;;8.24
45976;BMP280;31696;42.668;23.322;2023-11-22T05:14:17;94044.38;;;8.31
45976;BMP280;31696;42.668;23.322;2023-11-22T05:16:18;94025.44;;;8.21
45976;BMP280;31696;42.668;23.322;2023-11-22T05:18:19;94035.41;;;8.32
45976;BMP280;31696;42.668;23.322;2023-11-22T05:20:19;94035.78;;;8.28
45976;BMP280;31696;42.668;23.322;2023-11-22T05:22:20;94035.31;;;8.07
45976;BMP280;31696;42.668;23.322;2023-11-22T05:24:20;94047.72;;;8.09
45976;BMP280;31696;42.668;23.322;2023-11-22T05:26:21;94050.78;;;8.30
45976;BMP280;31696;42.668;23.322;2023-11-22T05:28:22;94056.84;;;8.17
45976;BMP280;31696;42.668;23.322;2023-11-22T05:30:22;94063.03;;;8.22
45976;BMP280;31696;42.668;23.322;2023-11-22T05:32:23;94062.63;;;8.40
45976;BMP280;31696;42.668;23.322;2023-11-22T05:34:23;94056.84;;;8.25
45976;BMP280;31696;42.668;23.322;2023-11-22T05:36:23;94076.16;;;8.09
45976;BMP280;31696;42.668;23.322;2023-11-22T05:38:24;94079.94;;;8.23
45976;BMP280;31696;42.668;23.322;2023-11-22T05:40:25;94080.97;;;8.12
45976;BMP280;31696;42.668;23.322;2023-11-22T05:42:26;94087.88;;;8.17
45976;BMP280;31696;42.668;23.322;2023-11-22T05:44:26;94077.47;;;8.40
45976;BMP280;31696;42.668;23.322;2023-11-22T05:46:26;94078.03;;;8.08
45976;BMP280;31696;42.668;23.322;2023-11-22T05:48:27;94072.88;;;8.01
45976;BMP280;31696;42.668;23.322;2023-11-22T05:50:27;94070.44;;;8.10
45976;BMP280;31696;42.668;23.322;2023-11-22T05:52:27;94073.88;;;8.28
45976;BMP280;31696;42.668;23.322;2023-11-22T05:54:28;94093.41;;;8.06
45976;BMP280;31696;42.668;23.322;2023-11-22T05:56:29;94093.00;;;8.32
45976;BMP280;31696;42.668;23.322;2023-11-22T05:58:30;94098.38;;;8.19
45976;BMP280;31696;42.668;23.322;2023-11-22T06:00:30;94100.28;;;8.11
45976;BMP280;31696;42.668;23.322;2023-11-22T06:02:30;94105.00;;;8.60
45976;BMP280;31696;42.668;23.322;2023-11-22T06:04:31;94112.66;;;8.43
45976;BMP280;31696;42.668;23.322;2023-11-22T06:06:31;94111.81;;;8.18
45976;BMP280;31696;42.668;23.322;2023-11-22T06:08:32;94112.84;;;8.22
45976;BMP280;31696;42.668;23.322;2023-11-22T06:10:32;94114.75;;;8.22
45976;BMP280;31696;42.668;23.322;2023-11-22T06:12:33;94115.09;;;8.18
45976;BMP280;31696;42.668;23.322;2023-11-22T06:14:34;94118.22;;;8.17
45976;BMP280;31696;42.668;23.322;2023-11-22T06:16:35;94125.06;;;8.45
45976;BMP280;31696;42.668;23.322;2023-11-22T06:18:35;94128.84;;;8.59
45976;BMP280;31696;42.668;23.322;2023-11-22T06:20:40;94129.91;;;8.33
45976;BMP280;31696;42.668;23.322;2023-11-22T06:22:41;94135.59;;;8.39
45976;BMP280;31696;42.668;23.322;2023-11-22T06:24:42;94141.09;;;8.58
45976;BMP280;31696;42.668;23.322;2023-11-22T06:26:43;94139.03;;;8.41
45976;BMP280;31696;42.668;23.322;2023-11-22T06:28:43;94143.69;;;8.43
45976;BMP280;31696;42.668;23.322;2023-11-22T06:30:45;94149.22;;;8.47
45976;BMP280;31696;42.668;23.322;2023-11-22T06:32:46;94146.78;;;8.49
45976;BMP280;31696;42.668;23.322;2023-11-22T06:34:46;94146.47;;;8.37
45976;BMP280;31696;42.668;23.322;2023-11-22T06:36:46;94136.13;;;8.37
45976;BMP280;31696;42.668;23.322;2023-11-22T06:38:47;94146.28;;;8.43
45976;BMP280;31696;42.668;23.322;2023-11-22T06:40:47;94126.91;;;8.59
45976;BMP280;31696;42.668;23.322;2023-11-22T06:42:48;94148.84;;;8.58
45976;BMP280;31696;42.668;23.322;2023-11-22T06:44:48;94153.34;;;8.50
45976;BMP280;31696;42.668;23.322;2023-11-22T06:46:50;94163.34;;;8.46
45976;BMP280;31696;42.668;23.322;2023-11-22T06:48:50;94159.34;;;8.60
45976;BMP280;31696;42.668;23.322;2023-11-22T06:50:50;94168.13;;;8.72
45976;BMP280;31696;42.668;23.322;2023-11-22T06:52:51;94169.50;;;8.73
45976;BMP280;31696;42.668;23.322;2023-11-22T06:54:52;94165.94;;;8.54
45976;BMP280;31696;42.668;23.322;2023-11-22T06:56:53;94172.28;;;8.60
45976;BMP280;31696;42.668;23.322;2023-11-22T06:58:53;94173.13;;;8.85
45976;BMP280;31696;42.668;23.322;2023-11-22T07:00:54;94172.28;;;8.75
45976;BMP280;31696;42.668;23.322;2023-11-22T07:02:55;94179.91;;;8.58
45976;BMP280;31696;42.668;23.322;2023-11-22T07:04:56;94172.84;;;8.59
45976;BMP280;31696;42.668;23.322;2023-11-22T07:06:59;94175.88;;;8.72
45976;BMP280;31696;42.668;23.322;2023-11-22T07:09:00;94175.84;;;8.95
45976;BMP280;31696;42.668;23.322;2023-11-22T07:11:01;94182.72;;;8.92
45976;BMP280;31696;42.668;23.322;2023-11-22T07:13:03;94182.25;;;8.79
45976;BMP280;31696;42.668;23.322;2023-11-22T07:15:04;94182.63;;;8.75
45976;BMP280;31696;42.668;23.322;2023-11-22T07:17:05;94187.81;;;8.75
45976;BMP280;31696;42.668;23.322;2023-11-22T07:19:09;94184.84;;;8.71
45976;BMP280;31696;42.668;23.322;2023-11-22T07:21:09;94200.22;;;8.69
45976;BMP280;31696;42.668;23.322;2023-11-22T07:23:10;94195.53;;;8.90
45976;BMP280;31696;42.668;23.322;2023-11-22T07:25:13;94194.34;;;8.84
45976;BMP280;31696;42.668;23.322;2023-11-22T07:27:18;94192.28;;;8.75
45976;BMP280;31696;42.668;23.322;2023-11-22T07:29:19;94196.72;;;8.97
45976;BMP280;31696;42.668;23.322;2023-11-22T07:31:21;94186.72;;;8.93
45976;BMP280;31696;42.668;23.322;2023-11-22T07:33:22;94195.34;;;8.88
45976;BMP280;31696;42.668;23.322;2023-11-22T07:35:26;94199.50;;;8.91
45976;BMP280;31696;42.668;23.322;2023-11-22T07:37:28;94205.16;;;9.05
45976;BMP280;31696;42.668;23.322;2023-11-22T07:39:28;94207.06;;;8.97
45976;BMP280;31696;42.668;23.322;2023-11-22T07:41:29;94208.28;;;8.88
45976;BMP280;31696;42.668;23.322;2023-11-22T07:43:31;94200.16;;;8.92
45976;BMP280;31696;42.668;23.322;2023-11-22T07:45:31;94207.41;;;9.01
45976;BMP280;31696;42.668;23.322;2023-11-22T07:47:32;94205.66;;;9.04
45976;BMP280;31696;42.668;23.322;2023-11-22T07:49:32;94207.22;;;9.07
45976;BMP280;31696;42.668;23.322;2023-11-22T07:51:36;94206.72;;;9.01
45976;BMP280;31696;42.668;23.322;2023-11-22T07:53:37;94211.84;;;9.08
45976;BMP280;31696;42.668;23.322;2023-11-22T07:55:39;94205.41;;;9.32
45976;BMP280;31696;42.668;23.322;2023-11-22T07:57:39;94204.16;;;9.33
45976;BMP280;31696;42.668;23.322;2023-11-22T07:59:40;94218.41;;;9.09
45976;BMP280;31696;42.668;23.322;2023-11-22T08:01:42;94215.38;;;8.96
45976;BMP280;31696;42.668;23.322;2023-11-22T08:03:43;94212.03;;;9.10
45976;BMP280;31696;42.668;23.322;2023-11-22T08:05:45;94210.50;;;9.07
45976;BMP280;31696;42.668;23.322;2023-11-22T08:07:48;94211.88;;;9.01
45976;BMP280;31696;42.668;23.322;2023-11-22T08:09:49;94220.50;;;9.11
45976;BMP280;31696;42.668;23.322;2023-11-22T08:11:49;94214.09;;;9.12
45976;BMP280;31696;42.668;23.322;2023-11-22T08:13:49;94212.22;;;9.05
45976;BMP280;31696;42.668;23.322;2023-11-22T08:15:50;94219.28;;;9.12
45976;BMP280;31696;42.668;23.322;2023-11-22T08:17:51;94215.97;;;9.19
45976;BMP280;31696;42.668;23.322;2023-11-22T08:19:52;94215.09;;;9.24
45976;BMP280;31696;42.668;23.322;2023-11-22T08:21:52;94221.84;;;9.19
45976;BMP280;31696;42.668;23.322;2023-11-22T08:23:54;94228.75;;;9.24
45976;BMP280;31696;42.668;23.322;2023-11-22T08:25:54;94222.88;;;9.24
45976;BMP280;31696;42.668;23.322;2023-11-22T08:27:57;94229.75;;;9.29
45976;BMP280;31696;42.668;23.322;2023-11-22T08:29:57;94225.56;;;9.41
45976;BMP280;31696;42.668;23.322;2023-11-22T08:31:58;94227.97;;;9.39
45976;BMP280;31696;42.668;23.322;2023-11-22T08:33:58;94229.00;;;9.43
45976;BMP280;31696;42.668;23.322;2023-11-22T08:35:59;94236.09;;;9.43
45976;BMP280;31696;42.668;23.322;2023-11-22T08:38:01;94236.63;;;9.34
45976;BMP280;31696;42.668;23.322;2023-11-22T08:40:06;94240.41;;;9.40
45976;BMP280;31696;42.668;23.322;2023-11-22T08:42:07;94234.19;;;9.43
45976;BMP280;31696;42.668;23.322;2023-11-22T08:44:09;94239.53;;;9.38
45976;BMP280;31696;42.668;23.322;2023-11-22T08:46:10;94238.69;;;9.35
45976;BMP280;31696;42.668;23.322;2023-11-22T08:48:10;94233.91;;;9.32
45976;BMP280;31696;42.668;23.322;2023-11-22T08:50:10;94234.53;;;9.40
45976;BMP280;31696;42.668;23.322;2023-11-22T08:52:11;94231.22;;;9.47
45976;BMP280;31696;42.668;23.322;2023-11-22T08:54:12;94226.38;;;9.51
45976;BMP280;31696;42.668;23.322;2023-11-22T08:56:12;94234.88;;;9.44
45976;BMP280;31696;42.668;23.322;2023-11-22T08:58:13;94229.66;;;9.52
45976;BMP280;31696;42.668;23.322;2023-11-22T09:00:14;94233.41;;;9.58
45976;BMP280;31696;42.668;23.322;2023-11-22T09:02:14;94240.59;;;9.75
45976;BMP280;31696;42.668;23.322;2023-11-22T09:04:15;94243.28;;;9.84
45976;BMP280;31696;42.668;23.322;2023-11-22T09:06:16;94235.34;;;9.82
45976;BMP280;31696;42.668;23.322;2023-11-22T09:08:17;94248.06;;;9.71
45976;BMP280;31696;42.668;23.322;2023-11-22T09:10:17;94252.97;;;9.84
45976;BMP280;31696;42.668;23.322;2023-11-22T09:12:18;94257.31;;;9.81
45976;BMP280;31696;42.668;23.322;2023-11-22T09:14:21;94253.34;;;9.80
45976;BMP280;31696;42.668;23.322;2023-11-22T09:16:21;94255.09;;;9.78
45976;BMP280;31696;42.668;23.322;2023-11-22T09:18:25;94263.06;;;9.72
45976;BMP280;31696;42.668;23.322;2023-11-22T09:20:25;94262.81;;;9.85
45976;BMP280;31696;42.668;23.322;2023-11-22T09:22:25;94268.47;;;9.99
45976;BMP280;31696;42.668;23.322;2023-11-22T09:24:27;94260.47;;;10.05
45976;BMP280;31696;42.668;23.322;2023-11-22T09:26:27;94268.00;;;9.85
45976;BMP280;31696;42.668;23.322;2023-11-22T09:28:27;94270.22;;;9.96
45976;BMP280;31696;42.668;23.322;2023-11-22T09:30:28;94267.06;;;9.98
45976;BMP280;31696;42.668;23.322;2023-11-22T09:32:35;94279.19;;;9.95
45976;BMP280;31696;42.668;23.322;2023-11-22T09:34:36;94272.19;;;10.13
45976;BMP280;31696;42.668;23.322;2023-11-22T09:36:36;94269.25;;;10.09
45976;BMP280;31696;42.668;23.322;2023-11-22T09:38:37;94268.22;;;10.12
45976;BMP280;31696;42.668;23.322;2023-11-22T09:40:42;94275.41;;;9.96
45976;BMP280;31696;42.668;23.322;2023-11-22T09:42:42;94283.44;;;9.76
45976;BMP280;31696;42.668;23.322;2023-11-22T09:44:43;94284.16;;;9.76
45976;BMP280;31696;42.668;23.322;2023-11-22T09:46:43;94277.88;;;9.87
45976;BMP280;31696;42.668;23.322;2023-11-22T09:48:45;94273.78;;;9.76
45976;BMP280;31696;42.668;23.322;2023-11-22T09:52:50;94264.47;;;9.73
45976;BMP280;31696;42.668;23.322;2023-11-22T09:54:54;94272.59;;;10.02
45976;BMP280;31696;42.668;23.322;2023-11-22T09:56:56;94262.81;;;10.18
45976;BMP280;31696;42.668;23.322;2023-11-22T09:58:57;94262.94;;;10.20
45976;BMP280;31696;42.668;23.322;2023-11-22T10:01:00;94265.22;;;10.16
45976;BMP280;31696;42.668;23.322;2023-11-22T10:03:01;94273.19;;;10.18
45976;BMP280;31696;42.668;23.322;2023-11-22T10:05:02;94265.03;;;10.21
45976;BMP280;31696;42.668;23.322;2023-11-22T10:07:03;94274.81;;;10.30
45976;BMP280;31696;42.668;23.322;2023-11-22T10:09:04;94273.91;;;10.60
45976;BMP280;31696;42.668;23.322;2023-11-22T10:11:08;94263.19;;;10.39
45976;BMP280;31696;42.668;23.322;2023-11-22T10:13:08;94254.91;;;10.33
45976;BMP280;31696;42.668;23.322;2023-11-22T10:15:13;94258.66;;;10.15
45976;BMP280;31696;42.668;23.322;2023-11-22T10:17:14;94261.13;;;10.13
45976;BMP280;31696;42.668;23.322;2023-11-22T10:19:19;94256.19;;;10.24
45976;BMP280;31696;42.668;23.322;2023-11-22T10:21:24;94250.22;;;10.14
45976;BMP280;31696;42.668;23.322;2023-11-22T10:23:25;94259.25;;;10.06
45976;BMP280;31696;42.668;23.322;2023-11-22T10:25:29;94270.38;;;10.23
45976;BMP280;31696;42.668;23.322;2023-11-22T10:27:32;94264.53;;;10.40
45976;BMP280;31696;42.668;23.322;2023-11-22T10:29:32;94263.41;;;10.26
45976;BMP280;31696;42.668;23.322;2023-11-22T10:31:33;94267.56;;;10.29
45976;BMP280;31696;42.668;23.322;2023-11-22T10:33:38;94254.63;;;10.46
45976;BMP280;31696;42.668;23.322;2023-11-22T10:36:00;94265.00;;;10.46
45976;BMP280;31696;42.668;23.322;2023-11-22T10:37:59;94266.47;;;10.57
45976;BMP280;31696;42.668;23.322;2023-11-22T10:40:02;94261.84;;;10.47
45976;BMP280;31696;42.668;23.322;2023-11-22T10:42:05;94276.16;;;10.39
45976;BMP280;31696;42.668;23.322;2023-11-22T10:44:08;94277.38;;;10.38
45976;BMP280;31696;42.668;23.322;2023-11-22T10:46:09;94277.03;;;10.34
45976;BMP280;31696;42.668;23.322;2023-11-22T10:48:13;94272.56;;;10.51
45976;BMP280;31696;42.668;23.322;2023-11-22T10:50:16;94269.28;;;10.51
45976;BMP280;31696;42.668;23.322;2023-11-22T10:52:17;94266.06;;;10.43
45976;BMP280;31696;42.668;23.322;2023-11-22T10:54:19;94264.53;;;10.40
45976;BMP280;31696;42.668;23.322;2023-11-22T10:56:20;94254.56;;;10.53
45976;BMP280;31696;42.668;23.322;2023-11-22T10:58:20;94267.75;;;10.48
45976;BMP280;31696;42.668;23.322;2023-11-22T11:00:21;94271.31;;;10.60
45976;BMP280;31696;42.668;23.322;2023-11-22T11:02:23;94259.84;;;10.63
45976;BMP280;31696;42.668;23.322;2023-11-22T11:04:27;94257.09;;;10.61
45976;BMP280;31696;42.668;23.322;2023-11-22T11:06:31;94259.75;;;10.53
45976;BMP280;31696;42.668;23.322;2023-11-22T11:08:33;94255.72;;;10.60
45976;BMP280;31696;42.668;23.322;2023-11-22T11:10:39;94257.16;;;10.53
45976;BMP280;31696;42.668;23.322;2023-11-22T11:12:39;94268.34;;;10.56
45976;BMP280;31696;42.668;23.322;2023-11-22T11:14:40;94273.25;;;10.52
45976;BMP280;31696;42.668;23.322;2023-11-22T11:16:40;94268.44;;;10.48
45976;BMP280;31696;42.668;23.322;2023-11-22T11:18:45;94272.66;;;10.44
45976;BMP280;31696;42.668;23.322;2023-11-22T11:20:52;94268.44;;;10.48
45976;BMP280;31696;42.668;23.322;2023-11-22T11:22:53;94262.47;;;10.55
45976;BMP280;31696;42.668;23.322;2023-11-22T11:25:00;94259.63;;;10.86
45976;BMP280;31696;42.668;23.322;2023-11-22T11:27:02;94267.41;;;10.69
45976;BMP280;31696;42.668;23.322;2023-11-22T11:29:02;94264.94;;;10.53
45976;BMP280;31696;42.668;23.322;2023-11-22T11:31:07;94271.75;;;10.66
45976;BMP280;31696;42.668;23.322;2023-11-22T11:33:09;94267.63;;;10.63
45976;BMP280;31696;42.668;23.322;2023-11-22T11:35:09;94266.41;;;10.64
45976;BMP280;31696;42.668;23.322;2023-11-22T11:37:11;94263.50;;;10.60